createdAt,value
2018-05-18T00:01:53.298Z,2.87
2018-05-18T00:04:27.821Z,2.83
2018-05-18T00:07:02.344Z,2.93
2018-05-18T00:09:36.151Z,2.73
2018-05-18T00:12:10.018Z,3.50
2018-05-18T00:14:43.881Z,3.23
2018-05-18T00:17:18.410Z,3.10
2018-05-18T00:19:52.430Z,2.93
2018-05-18T00:22:26.164Z,2.67
2018-05-18T00:25:00.755Z,2.60
2018-05-18T00:27:34.434Z,3.37
2018-05-18T00:30:08.343Z,2.90
2018-05-18T00:32:42.967Z,2.87
2018-05-18T00:35:17.652Z,2.77
2018-05-18T00:37:51.604Z,2.80
2018-05-18T00:40:26.025Z,2.90
2018-05-18T00:42:59.932Z,2.27
2018-05-18T00:45:33.670Z,2.90
2018-05-18T00:48:07.521Z,3.27
2018-05-18T00:50:41.433Z,2.47
2018-05-18T00:53:15.298Z,2.83
2018-05-18T00:55:49.205Z,2.77
2018-05-18T00:58:23.825Z,2.63
2018-05-18T01:00:57.669Z,3.10
2018-05-18T01:03:31.523Z,2.30
2018-05-18T01:06:05.414Z,3.13
2018-05-18T01:08:40.034Z,3.73
2018-05-18T01:11:13.808Z,3.27
2018-05-18T01:13:48.453Z,3.07
2018-05-18T01:16:22.275Z,3.27
2018-05-18T01:18:55.978Z,2.93
2018-05-18T01:21:29.759Z,2.90
2018-05-18T01:24:03.565Z,3.03
2018-05-18T01:26:37.397Z,3.30
2018-05-18T01:29:11.152Z,3.10
2018-05-18T01:31:45.101Z,2.20
2018-05-18T01:34:18.816Z,3.03
2018-05-18T01:36:52.628Z,3.03
2018-05-18T01:39:26.430Z,2.50
2018-05-18T01:42:01.002Z,3.20
2018-05-18T01:44:35.530Z,2.80
2018-05-18T01:47:09.229Z,2.90
2018-05-18T01:49:43.917Z,2.97
2018-05-18T01:52:17.795Z,2.47
2018-05-18T01:54:51.575Z,2.30
2018-05-18T01:57:25.430Z,3.10
2018-05-18T01:59:59.379Z,2.73
2018-05-18T02:02:33.812Z,2.50
2018-05-18T02:05:07.610Z,2.50
2018-05-18T02:07:41.475Z,2.50
2018-05-18T02:10:16.132Z,2.63
2018-05-18T02:12:49.979Z,2.93
2018-05-18T02:15:23.824Z,2.87
2018-05-18T02:17:57.726Z,2.80
2018-05-18T02:20:31.697Z,2.70
2018-05-18T02:23:05.526Z,3.03
2018-05-18T02:25:39.450Z,3.00
2018-05-18T02:28:13.343Z,3.00
2018-05-18T02:30:47.263Z,3.00
2018-05-18T02:33:21.288Z,2.80
2018-05-18T02:35:55.973Z,3.00
2018-05-18T02:38:29.723Z,2.27
2018-05-18T02:41:03.443Z,2.90
2018-05-18T02:43:37.249Z,2.87
2018-05-18T02:46:11.169Z,2.93
2018-05-18T02:48:45.201Z,3.20
2018-05-18T02:51:19.466Z,2.73
2018-05-18T02:53:53.213Z,2.93
2018-05-18T02:56:26.877Z,2.87
2018-05-18T02:59:00.860Z,3.03
2018-05-18T03:01:34.592Z,2.67
2018-05-18T03:04:09.268Z,2.63
2018-05-18T03:06:44.179Z,2.43
2018-05-18T03:09:17.980Z,2.83
2018-05-18T03:11:52.628Z,3.00
2018-05-18T03:14:26.569Z,2.50
2018-05-18T03:17:00.387Z,2.70
2018-05-18T03:19:34.205Z,2.77
2018-05-18T03:22:08.727Z,2.60
2018-05-18T03:24:42.486Z,2.57
2018-05-18T03:27:16.340Z,2.97
2018-05-18T03:29:51.164Z,2.40
2018-05-18T03:32:25.182Z,2.13
2018-05-18T03:34:58.940Z,2.80
2018-05-18T03:37:33.538Z,2.93
2018-05-18T03:40:07.579Z,2.93
2018-05-18T03:42:42.106Z,2.80
2018-05-18T03:45:16.039Z,2.87
2018-05-18T03:47:50.638Z,2.50
2018-05-18T03:50:24.444Z,2.80
2018-05-18T03:52:58.191Z,2.80
2018-05-18T03:55:32.051Z,2.73
2018-05-18T03:58:06.009Z,2.67
2018-05-18T04:00:40.531Z,3.17
2018-05-18T04:03:26.381Z,2.80
2018-05-18T04:06:12.493Z,3.13
2018-05-18T04:08:52.435Z,2.77
2018-05-18T04:11:26.427Z,2.70
2018-05-18T04:14:00.806Z,2.20
2018-05-18T04:16:34.739Z,2.83
2018-05-18T04:19:09.237Z,2.93
2018-05-18T04:21:43.096Z,2.80
2018-05-18T04:24:16.993Z,2.63
2018-05-18T04:26:51.316Z,2.47
2018-05-18T04:29:25.279Z,2.60
2018-05-18T04:31:59.239Z,2.77
2018-05-18T04:34:33.178Z,2.90
2018-05-18T04:37:06.897Z,2.53
2018-05-18T04:39:40.702Z,2.73
2018-05-18T04:42:15.021Z,2.63
2018-05-18T04:44:48.819Z,2.30
2018-05-18T04:47:23.322Z,2.00
2018-05-18T04:49:57.829Z,2.23
2018-05-18T04:52:31.931Z,2.57
2018-05-18T04:55:06.546Z,2.07
2018-05-18T04:57:40.408Z,2.13
2018-05-18T05:00:14.985Z,2.63
2018-05-18T05:02:48.919Z,2.53
2018-05-18T05:05:22.652Z,2.20
2018-05-18T05:07:56.394Z,2.43
2018-05-18T05:10:30.974Z,2.23
2018-05-18T05:13:04.845Z,2.17
2018-05-18T05:15:38.732Z,2.33
2018-05-18T05:18:12.549Z,2.77
2018-05-18T05:20:46.492Z,2.73
2018-05-18T05:23:20.967Z,2.00
2018-05-18T05:25:55.129Z,2.70
2018-05-18T05:28:28.804Z,2.40
2018-05-18T05:31:02.465Z,2.67
2018-05-18T05:33:37.041Z,2.07
2018-05-18T05:36:10.667Z,2.00
2018-05-18T05:38:44.548Z,2.23
2018-05-18T05:41:18.250Z,2.30
2018-05-18T05:43:52.181Z,2.20
2018-05-18T05:46:25.967Z,2.47
2018-05-18T05:49:00.684Z,2.23
2018-05-18T05:51:34.419Z,2.07
2018-05-18T05:54:08.306Z,2.57
2018-05-18T05:56:42.952Z,2.43
2018-05-18T05:59:17.460Z,3.00
2018-05-18T06:01:51.196Z,2.67
2018-05-18T06:04:25.090Z,1.97
2018-05-18T06:06:58.820Z,2.50
2018-05-18T06:09:32.685Z,2.40
2018-05-18T06:12:06.677Z,2.27
2018-05-18T06:14:40.473Z,2.47
2018-05-18T06:17:14.238Z,2.83
2018-05-18T06:19:48.090Z,2.47
2018-05-18T06:22:22.638Z,2.50
2018-05-18T06:24:56.314Z,2.77
2018-05-18T06:27:29.978Z,2.70
2018-05-18T06:30:03.821Z,2.30
2018-05-18T06:32:31.989Z,2.73
2018-05-18T06:35:00.229Z,2.57
2018-05-18T06:37:29.163Z,1.97
2018-05-18T06:39:57.342Z,2.27
2018-05-18T06:42:26.313Z,2.50
2018-05-18T06:44:54.560Z,2.80
2018-05-18T06:47:22.764Z,2.37
2018-05-18T06:49:52.045Z,2.67
2018-05-18T06:52:21.033Z,2.53
2018-05-18T06:54:49.223Z,2.50
2018-05-18T06:57:17.426Z,2.73
2018-05-18T06:59:46.423Z,2.40
2018-05-18T07:02:15.419Z,2.60
2018-05-18T07:04:43.636Z,2.27
2018-05-18T07:07:11.836Z,2.47
2018-05-18T07:09:40.023Z,3.00
2018-05-18T07:12:08.214Z,3.10
2018-05-18T07:14:37.364Z,2.70
2018-05-18T07:17:05.522Z,2.83
2018-05-18T07:19:33.798Z,2.83
2018-05-18T07:22:02.017Z,3.47
2018-05-18T07:24:31.086Z,3.27
2018-05-18T07:26:59.263Z,2.83
2018-05-18T07:29:27.467Z,3.00
2018-05-18T07:31:55.684Z,2.90
2018-05-18T07:34:24.678Z,2.80
2018-05-18T07:36:52.918Z,2.97
2018-05-18T07:39:21.133Z,3.13
2018-05-18T07:41:49.466Z,3.43
2018-05-18T07:44:17.736Z,3.40
2018-05-18T07:46:46.731Z,3.03
2018-05-18T07:49:14.980Z,3.30
2018-05-18T07:51:44.090Z,2.57
2018-05-18T07:54:13.081Z,2.53
2018-05-18T07:56:41.265Z,3.00
2018-05-18T07:59:09.519Z,3.43
2018-05-18T08:01:38.146Z,2.60
2018-05-18T08:04:06.450Z,2.80
2018-05-18T08:06:34.806Z,2.83
2018-05-18T08:09:03.032Z,3.00
2018-05-18T08:11:32.169Z,2.80
2018-05-18T08:14:00.371Z,2.93
2018-05-18T08:16:28.648Z,3.03
2018-05-18T08:18:56.878Z,2.63
2018-05-18T08:21:25.110Z,2.70
2018-05-18T08:23:53.703Z,3.03
2018-05-18T08:26:22.662Z,2.70
2018-05-18T08:29:02.822Z,3.00
2018-05-18T08:31:31.105Z,3.47
2018-05-18T08:33:59.333Z,2.87
2018-05-18T08:36:27.570Z,3.53
2018-05-18T08:38:56.571Z,2.73
2018-05-18T08:41:24.770Z,2.87
2018-05-18T08:43:52.955Z,2.23
2018-05-18T08:46:21.143Z,2.97
2018-05-18T08:48:49.378Z,2.77
2018-05-18T08:51:18.385Z,2.70
2018-05-18T08:53:46.695Z,2.87
2018-05-18T08:56:14.884Z,3.00
2018-05-18T08:58:43.890Z,3.27
2018-05-18T09:01:12.932Z,3.70
2018-05-18T09:03:42.065Z,3.57
2018-05-18T09:06:10.415Z,4.43
2018-05-18T09:08:38.709Z,3.30
2018-05-18T09:11:06.937Z,3.33
2018-05-18T09:13:36.002Z,3.97
2018-05-18T09:16:05.514Z,4.77
2018-05-18T09:18:34.817Z,4.47
2018-05-18T09:21:04.073Z,3.60
2018-05-18T09:23:33.368Z,4.17
2018-05-18T09:26:01.632Z,4.07
2018-05-18T09:28:29.859Z,3.37
2018-05-18T09:30:58.305Z,3.73
2018-05-18T09:33:26.821Z,4.23
2018-05-18T09:35:55.853Z,3.77
2018-05-18T09:38:24.094Z,4.10
2018-05-18T09:40:52.538Z,3.83
2018-05-18T09:43:20.843Z,3.47
2018-05-18T09:45:49.176Z,3.93
2018-05-18T09:48:17.486Z,4.00
2018-05-18T09:50:45.765Z,4.20
2018-05-18T09:53:14.094Z,3.93
2018-05-18T09:55:42.386Z,4.70
2018-05-18T09:58:10.634Z,4.00
2018-05-18T10:00:38.993Z,4.80
2018-05-18T10:03:07.219Z,4.00
2018-05-18T10:05:36.424Z,4.47
2018-05-18T10:08:04.895Z,4.70
2018-05-18T10:10:34.012Z,3.90
2018-05-18T10:13:03.147Z,3.77
2018-05-18T10:15:32.326Z,4.63
2018-05-18T10:18:01.365Z,4.20
2018-05-18T10:20:29.617Z,3.37
2018-05-18T10:22:58.753Z,3.60
2018-05-18T10:25:27.914Z,3.80
2018-05-18T10:27:56.179Z,3.97
2018-05-18T10:30:30.362Z,4.83
2018-05-18T10:32:58.611Z,4.33
2018-05-18T10:35:27.727Z,4.57
2018-05-18T10:37:56.070Z,4.07
2018-05-18T10:40:24.289Z,3.87
2018-05-18T10:42:52.765Z,3.83
2018-05-18T10:45:21.835Z,3.70
2018-05-18T10:47:50.375Z,3.53
2018-05-18T10:50:19.079Z,4.53
2018-05-18T10:52:48.187Z,4.80
2018-05-18T10:55:16.376Z,4.07
2018-05-18T10:57:46.170Z,4.70
2018-05-18T11:00:14.346Z,4.70
2018-05-18T11:02:43.561Z,3.80
2018-05-18T11:05:11.877Z,3.77
2018-05-18T11:07:40.129Z,4.07
2018-05-18T11:10:09.174Z,4.60
2018-05-18T11:12:37.677Z,3.40
2018-05-18T11:15:06.303Z,3.87
2018-05-18T11:17:34.944Z,4.50
2018-05-18T11:20:04.161Z,3.57
2018-05-18T11:22:32.565Z,4.20
2018-05-18T11:25:00.907Z,5.00
2018-05-18T11:27:29.324Z,3.93
2018-05-18T11:29:57.644Z,3.60
2018-05-18T11:32:26.128Z,3.70
2018-05-18T11:34:54.484Z,3.80
2018-05-18T11:37:23.766Z,4.27
2018-05-18T11:39:52.183Z,3.73
2018-05-18T11:42:21.245Z,4.17
2018-05-18T11:44:49.771Z,3.63
2018-05-18T11:47:17.740Z,3.50
2018-05-18T11:49:46.037Z,3.00
2018-05-18T11:52:14.323Z,3.77
2018-05-18T11:54:43.501Z,3.97
2018-05-18T11:57:12.807Z,3.30
2018-05-18T11:59:41.018Z,3.00
2018-05-18T12:02:09.349Z,3.60
2018-05-18T12:04:37.819Z,3.73
2018-05-18T12:07:06.153Z,3.17
2018-05-18T12:09:35.301Z,3.30
2018-05-18T12:12:03.627Z,3.47
2018-05-18T12:14:31.834Z,3.63
2018-05-18T12:17:00.121Z,4.40
2018-05-18T12:19:28.501Z,3.67
2018-05-18T12:21:56.895Z,3.10
2018-05-18T12:24:25.458Z,3.50
2018-05-18T12:26:55.134Z,3.70
2018-05-18T12:29:24.328Z,3.80
2018-05-18T12:31:53.389Z,3.30
2018-05-18T12:34:21.772Z,3.33
2018-05-18T12:36:50.241Z,3.77
2018-05-18T12:39:18.636Z,3.97
2018-05-18T12:41:47.325Z,3.37
2018-05-18T12:44:15.643Z,3.07
2018-05-18T12:46:44.919Z,3.57
2018-05-18T12:49:14.066Z,2.90
2018-05-18T12:51:43.843Z,4.10
2018-05-18T12:54:12.512Z,3.77
2018-05-18T12:56:41.626Z,4.47
2018-05-18T12:59:10.086Z,3.63
2018-05-18T13:01:38.395Z,3.30
2018-05-18T13:04:06.682Z,3.77
2018-05-18T13:06:35.014Z,4.03
2018-05-18T13:09:03.439Z,2.83
2018-05-18T13:11:31.628Z,2.97
2018-05-18T13:13:59.883Z,3.23
2018-05-18T13:16:28.451Z,3.37
2018-05-18T13:18:58.545Z,3.10
2018-05-18T13:21:27.021Z,2.80
2018-05-18T13:23:56.558Z,2.90
2018-05-18T13:26:25.226Z,3.07
2018-05-18T13:28:53.520Z,3.33
2018-05-18T13:31:21.859Z,3.37
2018-05-18T13:33:50.999Z,3.30
2018-05-18T13:36:19.273Z,2.60
2018-05-18T13:38:47.734Z,3.07
2018-05-18T13:41:16.447Z,3.00
2018-05-18T13:43:44.627Z,3.40
2018-05-18T13:46:12.918Z,2.87
2018-05-18T13:48:42.018Z,3.13
2018-05-18T13:51:11.091Z,3.07
2018-05-18T13:53:39.400Z,2.87
2018-05-18T13:56:08.530Z,3.00
2018-05-18T13:58:36.826Z,2.57
2018-05-18T14:01:05.223Z,2.00
2018-05-18T14:03:34.364Z,2.70
2018-05-18T14:06:03.300Z,3.17
2018-05-18T14:08:31.739Z,2.63
2018-05-18T14:11:01.019Z,3.20
2018-05-18T14:13:29.361Z,3.50
2018-05-18T14:15:58.345Z,3.00
2018-05-18T14:18:28.420Z,3.17
2018-05-18T14:20:56.956Z,2.93
2018-05-18T14:23:25.440Z,3.63
2018-05-18T14:25:53.835Z,3.03
2018-05-18T14:28:22.874Z,3.07
2018-05-18T14:30:51.327Z,2.43
2018-05-18T14:33:19.524Z,2.60
2018-05-18T14:35:47.888Z,3.17
2018-05-18T14:38:16.287Z,2.30
2018-05-18T14:40:44.710Z,2.03
2018-05-18T14:43:13.995Z,2.40
2018-05-18T14:45:42.388Z,2.67
2018-05-18T14:48:11.786Z,2.20
2018-05-18T14:50:41.393Z,2.73
2018-05-18T14:53:10.381Z,2.43
2018-05-18T14:55:39.379Z,2.33
2018-05-18T14:58:07.575Z,2.83
2018-05-18T15:00:36.005Z,2.23
2018-05-18T15:03:04.380Z,2.50
2018-05-18T15:05:35.010Z,2.10
2018-05-18T15:08:03.209Z,2.50
2018-05-18T15:10:32.182Z,1.93
2018-05-18T15:13:01.199Z,2.27
2018-05-18T15:15:29.405Z,2.33
2018-05-18T15:17:57.803Z,2.63
2018-05-18T15:20:26.259Z,2.60
2018-05-18T15:22:54.450Z,2.23
2018-05-18T15:25:22.697Z,2.37
2018-05-18T15:27:50.875Z,2.67
2018-05-18T15:30:19.249Z,3.80
2018-05-18T15:32:48.432Z,3.20
2018-05-18T15:35:17.241Z,2.87
2018-05-18T15:37:45.789Z,2.83
2018-05-18T15:40:14.813Z,2.37
2018-05-18T15:42:45.725Z,2.83
2018-05-18T15:45:14.642Z,2.83
2018-05-18T15:47:43.515Z,2.70
2018-05-18T15:50:11.821Z,2.73
2018-05-18T15:52:40.185Z,2.57
2018-05-18T15:55:08.569Z,3.00
2018-05-18T15:57:36.827Z,3.43
2018-05-18T16:00:05.056Z,2.80
2018-05-18T16:02:34.885Z,2.67
2018-05-18T16:05:03.924Z,2.67
2018-05-18T16:07:32.179Z,2.70
2018-05-18T16:10:00.507Z,3.00
2018-05-18T16:12:28.841Z,2.90
2018-05-18T16:14:57.755Z,2.80
2018-05-18T16:17:26.754Z,2.77
2018-05-18T16:19:55.108Z,2.80
2018-05-18T16:22:23.562Z,2.90
2018-05-18T16:24:51.817Z,2.60
2018-05-18T16:27:20.046Z,2.63
2018-05-18T16:29:50.298Z,2.50
2018-05-18T16:32:19.641Z,3.57
2018-05-18T16:34:49.417Z,3.43
2018-05-18T16:37:18.568Z,3.13
2018-05-18T16:39:49.537Z,2.70
2018-05-18T16:42:18.790Z,2.80
2018-05-18T16:44:47.107Z,2.83
2018-05-18T16:47:15.319Z,3.03
2018-05-18T16:49:44.525Z,2.83
2018-05-18T16:52:13.153Z,3.10
2018-05-18T16:54:41.601Z,2.70
2018-05-18T16:57:09.957Z,3.07
2018-05-18T16:59:38.405Z,2.27
2018-05-18T17:02:07.547Z,2.77
2018-05-18T17:04:35.882Z,3.47
2018-05-18T17:07:09.938Z,3.67
2018-05-18T17:09:38.311Z,3.43
2018-05-18T17:12:08.609Z,3.67
2018-05-18T17:14:36.975Z,3.23
2018-05-18T17:17:05.999Z,3.57
2018-05-18T17:19:35.512Z,2.87
2018-05-18T17:22:03.817Z,3.07
2018-05-18T17:24:32.176Z,3.27
2018-05-18T17:27:00.445Z,2.67
2018-05-18T17:29:29.017Z,2.63
2018-05-18T17:31:57.305Z,3.07
2018-05-18T17:34:25.749Z,2.60
2018-05-18T17:36:54.815Z,2.47
2018-05-18T17:39:23.974Z,2.87
2018-05-18T17:41:52.320Z,2.57
2018-05-18T17:44:20.688Z,2.27
2018-05-18T17:46:49.739Z,2.70
2018-05-18T17:49:18.136Z,2.90
2018-05-18T17:51:47.225Z,2.80
2018-05-18T17:54:15.609Z,2.50
2018-05-18T17:56:44.713Z,2.60
2018-05-18T17:59:13.788Z,2.30
2018-05-18T18:01:42.085Z,2.97
2018-05-18T18:04:11.265Z,2.30
2018-05-18T18:06:39.490Z,2.40
2018-05-18T18:09:07.867Z,2.90
2018-05-18T18:11:36.241Z,2.50
2018-05-18T18:14:05.431Z,2.00
2018-05-18T18:16:33.652Z,2.07
2018-05-18T18:19:02.707Z,2.43
2018-05-18T18:21:30.993Z,2.30
2018-05-18T18:23:59.882Z,2.43
2018-05-18T18:26:28.086Z,2.40
2018-05-18T18:28:56.426Z,2.20
2018-05-18T18:31:24.715Z,2.40
2018-05-18T18:33:52.942Z,2.27
2018-05-18T18:36:21.369Z,1.90
2018-05-18T18:38:49.577Z,2.27
2018-05-18T18:41:18.533Z,2.20
2018-05-18T18:43:46.748Z,2.27
2018-05-18T18:46:15.793Z,2.33
2018-05-18T18:48:44.085Z,2.50
2018-05-18T18:51:12.359Z,1.90
2018-05-18T18:53:40.643Z,2.60
2018-05-18T18:56:08.978Z,2.43
2018-05-18T18:58:37.229Z,2.23
2018-05-18T19:01:12.053Z,2.00
2018-05-18T19:03:47.018Z,2.00
2018-05-18T19:06:19.996Z,2.13
2018-05-18T19:08:52.977Z,1.83
2018-05-18T19:11:21.867Z,2.30
2018-05-18T19:13:50.166Z,2.40
2018-05-18T19:16:18.624Z,2.80
2018-05-18T19:18:49.517Z,2.60
2018-05-18T19:21:23.429Z,2.47
2018-05-18T19:23:52.625Z,2.90
2018-05-18T19:26:22.336Z,2.70
2018-05-18T19:28:52.092Z,2.77
2018-05-18T19:31:20.549Z,2.33
2018-05-18T19:33:52.606Z,2.53
2018-05-18T19:36:22.812Z,2.17
2018-05-18T19:38:51.902Z,2.20
2018-05-18T19:41:20.277Z,2.50
2018-05-18T19:43:48.727Z,2.80
2018-05-18T19:46:17.153Z,2.47
2018-05-18T19:48:45.483Z,2.30
2018-05-18T19:51:14.702Z,2.30
2018-05-18T19:53:43.034Z,2.30
2018-05-18T19:56:11.382Z,2.27
2018-05-18T19:58:39.845Z,2.30
2018-05-18T20:01:08.902Z,2.13
2018-05-18T20:03:37.311Z,2.20
2018-05-18T20:06:05.603Z,2.20
2018-05-18T20:08:33.947Z,2.30
2018-05-18T20:11:02.269Z,2.40
2018-05-18T20:13:30.650Z,2.67
2018-05-18T20:15:58.974Z,1.83
2018-05-18T20:18:28.002Z,1.70
2018-05-18T20:20:57.258Z,2.03
2018-05-18T20:23:25.582Z,2.07
2018-05-18T20:25:53.857Z,2.30
2018-05-18T20:28:23.107Z,2.40
2018-05-18T20:30:52.408Z,2.10
2018-05-18T20:33:20.714Z,2.07
2018-05-18T20:35:49.747Z,2.00
2018-05-18T20:38:26.266Z,1.87
2018-05-18T20:40:56.845Z,2.23
2018-05-18T20:43:25.372Z,2.10
2018-05-18T20:45:54.602Z,2.40
2018-05-18T20:48:24.602Z,2.20
2018-05-18T20:50:53.132Z,2.07
2018-05-18T20:53:22.600Z,2.03
2018-05-18T20:55:53.771Z,2.03
2018-05-18T20:58:24.122Z,1.97
2018-05-18T21:00:57.683Z,2.17
2018-05-18T21:03:27.176Z,2.00
2018-05-18T21:06:01.086Z,2.20
2018-05-18T21:08:30.241Z,1.90
2018-05-18T21:10:59.313Z,2.00
2018-05-18T21:13:27.579Z,2.03
2018-05-18T21:15:55.865Z,2.20
2018-05-18T21:18:24.199Z,2.10
2018-05-18T21:20:52.509Z,1.87
2018-05-18T21:23:20.844Z,2.00
2018-05-18T21:25:49.279Z,2.07
2018-05-18T21:28:17.618Z,1.90
2018-05-18T21:30:45.869Z,2.43
2018-05-18T21:33:14.248Z,1.80
2018-05-18T21:35:42.529Z,2.10
2018-05-18T21:38:10.853Z,2.27
2018-05-18T21:40:39.661Z,2.10
2018-05-18T21:43:08.755Z,2.23
2018-05-18T21:45:36.999Z,2.03
2018-05-18T21:48:05.444Z,2.30
2018-05-18T21:50:33.851Z,2.30
2018-05-18T21:53:02.290Z,2.03
2018-05-18T21:55:30.568Z,2.00
2018-05-18T21:57:58.929Z,2.10
2018-05-18T22:00:27.189Z,1.90
2018-05-18T22:02:55.469Z,2.33
2018-05-18T22:05:24.488Z,2.07
2018-05-18T22:07:52.998Z,1.87
2018-05-18T22:10:22.242Z,2.10
2018-05-18T22:12:55.555Z,1.93
2018-05-18T22:15:23.775Z,2.23
2018-05-18T22:17:52.002Z,2.00
2018-05-18T22:20:20.213Z,1.80
2018-05-18T22:22:48.588Z,2.20
2018-05-18T22:25:16.948Z,1.90
2018-05-18T22:27:45.693Z,1.73
2018-05-18T22:30:16.370Z,2.23
2018-05-18T22:32:44.804Z,1.90
2018-05-18T22:35:14.031Z,1.73
2018-05-18T22:37:42.785Z,2.10
2018-05-18T22:40:11.861Z,1.97
2018-05-18T22:42:40.271Z,1.90
2018-05-18T22:45:08.637Z,2.23
2018-05-18T22:47:37.771Z,2.13
2018-05-18T22:50:05.973Z,2.20
2018-05-18T22:52:35.114Z,1.90
2018-05-18T22:55:03.391Z,1.93
2018-05-18T22:57:31.749Z,1.83
2018-05-18T23:00:00.330Z,1.87
2018-05-18T23:02:28.766Z,1.63
2018-05-18T23:04:57.105Z,2.00
2018-05-18T23:07:25.361Z,1.50
2018-05-18T23:09:54.402Z,1.83
2018-05-18T23:12:22.843Z,1.83
2018-05-18T23:14:51.133Z,2.07
2018-05-18T23:17:19.364Z,1.90
2018-05-18T23:19:48.539Z,1.97
2018-05-18T23:22:17.069Z,1.63
2018-05-18T23:24:45.212Z,1.77
2018-05-18T23:27:13.550Z,1.70
2018-05-18T23:29:42.811Z,1.60
2018-05-18T23:32:11.284Z,1.60
2018-05-18T23:34:40.305Z,2.10
2018-05-18T23:37:08.735Z,1.60
2018-05-18T23:39:37.068Z,1.93
2018-05-18T23:42:05.408Z,1.90
2018-05-18T23:44:33.786Z,1.80
2018-05-18T23:47:02.221Z,1.70
2018-05-18T23:49:30.624Z,1.67
2018-05-18T23:51:59.159Z,1.90
2018-05-18T23:54:27.534Z,1.30
2018-05-18T23:56:56.020Z,1.70
2018-05-18T23:59:29.994Z,1.73
